Nicole Leigh Reinauer — WCZ5696 — position and weather

sailwx.info

Track history (hours):
 
Tides and Currents Weather Stations Pressure Air Temp Water Temp Dewpoint Dewpoint Depression Visibility Wind Speed Wind Dir Waves Ship Positions

Nicole Leigh Reinauer

Owner: H A REINAUER INC, STATEN ISLAND, NY. More information available from US FCC via Universal Licensing System and Coast Guard Vessel Documentation Center.

Last reported at 2016-Apr-28 04:32 UTC. Time now 2016-Apr-30 03:24 UTC.
Position N 29°47' W 093°57'.

Length 167 m; draft 6.9 m.

Type: Tanker. MMSI: 366774330.

Date/timePositionNaut miles runAvg speedWind from/ knotsBaromVisibWave heightAir tempDewpointWater temp
2016-Apr-28 04:32N 29°47' W 093°57'3 0.6
2016-Apr-27 23:25N 29°50' W 093°58'14 0.4
2016-Apr-26 14:25N 29°38' W 093°49'2 0.3
2016-Apr-26 07:24N 29°37' W 093°47'0 0.0
2016-Apr-24 13:30N 29°37' W 093°47'0 0.0
2016-Apr-24 08:32N 29°37' W 093°47'  
2016-Apr-21 23:05N 27°38' W 082°38'612.3
2016-Apr-21 22:33N 27°42' W 082°33'1110.7
2016-Apr-21 21:33N 27°51' W 082°27'5 5.1
2016-Apr-21 20:32N 27°56' W 082°27'0 0.0
2016-Apr-21 19:32N 27°56' W 082°27'0 0.0
2016-Apr-21 18:29N 27°56' W 082°27'0 0.0
2016-Apr-21 17:32N 27°56' W 082°27'0 0.0
2016-Apr-21 16:32N 27°56' W 082°27'0 0.0
2016-Apr-21 15:32N 27°56' W 082°27'0 0.0
2016-Apr-21 14:32N 27°56' W 082°27'0 0.0
2016-Apr-21 13:32N 27°56' W 082°27'0 0.0
2016-Apr-21 12:32N 27°56' W 082°27'0 0.0
2016-Apr-21 11:32N 27°56' W 082°27'0 0.0
2016-Apr-21 10:32N 27°56' W 082°27'0 0.0
2016-Apr-21 09:32N 27°56' W 082°27'0 0.0
2016-Apr-21 08:32N 27°56' W 082°27'0 0.0
2016-Apr-21 07:29N 27°56' W 082°27'0 0.0
2016-Apr-21 06:29N 27°56' W 082°27'0 0.0
2016-Apr-21 05:32N 27°56' W 082°27'0 0.0
2016-Apr-21 04:32N 27°56' W 082°27'0 0.0
2016-Apr-21 03:29N 27°56' W 082°27'0 0.0
2016-Apr-21 02:32N 27°56' W 082°27'0 0.0
2016-Apr-21 01:32N 27°56' W 082°27'0 0.0
2016-Apr-21 00:29N 27°56' W 082°27'0 0.0
2016-Apr-20 23:32N 27°56' W 082°27'0 0.0
2016-Apr-20 22:32N 27°56' W 082°27'0 0.0
2016-Apr-20 21:32N 27°56' W 082°27'0 0.0
2016-Apr-20 20:32N 27°56' W 082°27'0 0.0
2016-Apr-20 19:32N 27°56' W 082°27'0 0.0
2016-Apr-20 18:29N 27°56' W 082°27'0 0.0
2016-Apr-20 17:32N 27°56' W 082°27'0 0.0
2016-Apr-20 16:29N 27°56' W 082°27'0 0.0
2016-Apr-20 15:32N 27°56' W 082°27'4 4.4
2016-Apr-20 14:33N 27°52' W 082°27'7 7.5
2016-Apr-20 13:33N 27°49' W 082°34'3 2.8
2016-Apr-20 12:29N 27°52' W 082°33'  
Track history (hours):
 
Tides and Currents Weather Stations Pressure Air Temp Water Temp Dewpoint Dewpoint Depression Visibility Wind Speed Wind Dir Waves Ship Positions

Nicole Leigh Reinauer

Owner: H A REINAUER INC, STATEN ISLAND, NY. More information available from US FCC via Universal Licensing System and Coast Guard Vessel Documentation Center.

Last reported at 2016-Apr-28 04:32 UTC. Time now 2016-Apr-30 03:24 UTC.
Position N 29°47' W 093°57'.

Length 167 m; draft 6.9 m.

Type: Tanker. MMSI: 366774330.

Date/timePositionNaut miles runAvg speedWind from/ knotsBaromVisibWave heightAir tempDewpointWater temp
2016-Apr-28 04:32N 29°47' W 093°57'3 0.6
2016-Apr-27 23:25N 29°50' W 093°58'14 0.4
2016-Apr-26 14:25N 29°38' W 093°49'2 0.3
2016-Apr-26 07:24N 29°37' W 093°47'0 0.0
2016-Apr-24 13:30N 29°37' W 093°47'0 0.0
2016-Apr-24 08:32N 29°37' W 093°47'  
2016-Apr-21 23:05N 27°38' W 082°38'612.3
2016-Apr-21 22:33N 27°42' W 082°33'1110.7
2016-Apr-21 21:33N 27°51' W 082°27'5 5.1
2016-Apr-21 20:32N 27°56' W 082°27'0 0.0
2016-Apr-21 19:32N 27°56' W 082°27'0 0.0
2016-Apr-21 18:29N 27°56' W 082°27'0 0.0
2016-Apr-21 17:32N 27°56' W 082°27'0 0.0
2016-Apr-21 16:32N 27°56' W 082°27'0 0.0
2016-Apr-21 15:32N 27°56' W 082°27'0 0.0
2016-Apr-21 14:32N 27°56' W 082°27'0 0.0
2016-Apr-21 13:32N 27°56' W 082°27'0 0.0
2016-Apr-21 12:32N 27°56' W 082°27'0 0.0
2016-Apr-21 11:32N 27°56' W 082°27'0 0.0
2016-Apr-21 10:32N 27°56' W 082°27'0 0.0
2016-Apr-21 09:32N 27°56' W 082°27'0 0.0
2016-Apr-21 08:32N 27°56' W 082°27'0 0.0
2016-Apr-21 07:29N 27°56' W 082°27'0 0.0
2016-Apr-21 06:29N 27°56' W 082°27'0 0.0
2016-Apr-21 05:32N 27°56' W 082°27'0 0.0
2016-Apr-21 04:32N 27°56' W 082°27'0 0.0
2016-Apr-21 03:29N 27°56' W 082°27'0 0.0
2016-Apr-21 02:32N 27°56' W 082°27'0 0.0
2016-Apr-21 01:32N 27°56' W 082°27'0 0.0
2016-Apr-21 00:29N 27°56' W 082°27'0 0.0
2016-Apr-20 23:32N 27°56' W 082°27'0 0.0
2016-Apr-20 22:32N 27°56' W 082°27'0 0.0
2016-Apr-20 21:32N 27°56' W 082°27'0 0.0
2016-Apr-20 20:32N 27°56' W 082°27'0 0.0
2016-Apr-20 19:32N 27°56' W 082°27'0 0.0
2016-Apr-20 18:29N 27°56' W 082°27'0 0.0
2016-Apr-20 17:32N 27°56' W 082°27'0 0.0
2016-Apr-20 16:29N 27°56' W 082°27'0 0.0
2016-Apr-20 15:32N 27°56' W 082°27'4 4.4
2016-Apr-20 14:33N 27°52' W 082°27'7 7.5
2016-Apr-20 13:33N 27°49' W 082°34'3 2.8
2016-Apr-20 12:29N 27°52' W 082°33'  

Dump ship's entire track history